地図

経路データ

SID SEASON NUMBER BASIN SUBBASIN NAME ISO_TIME NATURE LAT LON WMO_WIND WMO_PRES WMO_AGENCY TRACK_TYPE DIST2LAND LANDFALL IFLAG USA_AGENCY USA_ATCF_ID USA_LAT USA_LON USA_RECORD USA_STATUS USA_WIND USA_PRES USA_SSHS USA_R34_NE USA_R34_SE USA_R34_SW USA_R34_NW USA_R50_NE USA_R50_SE USA_R50_SW USA_R50_NW USA_R64_NE USA_R64_SE USA_R64_SW USA_R64_NW USA_POCI USA_ROCI USA_RMW USA_EYE TOKYO_LAT TOKYO_LON TOKYO_GRADE TOKYO_WIND TOKYO_PRES TOKYO_R50_DIR TOKYO_R50_LONG TOKYO_R50_SHORT TOKYO_R30_DIR TOKYO_R30_LONG TOKYO_R30_SHORT TOKYO_LAND CMA_LAT CMA_LON CMA_CAT CMA_WIND CMA_PRES HKO_LAT HKO_LON HKO_CAT HKO_WIND HKO_PRES NEWDELHI_LAT NEWDELHI_LON NEWDELHI_GRADE NEWDELHI_WIND NEWDELHI_PRES NEWDELHI_CI NEWDELHI_DP NEWDELHI_POCI REUNION_LAT REUNION_LON REUNION_TYPE REUNION_WIND REUNION_PRES REUNION_TNUM REUNION_CI REUNION_RMW REUNION_R34_NE REUNION_R34_SE REUNION_R34_SW REUNION_R34_NW REUNION_R50_NE REUNION_R50_SE REUNION_R50_SW REUNION_R50_NW REUNION_R64_NE REUNION_R64_SE REUNION_R64_SW REUNION_R64_NW BOM_LAT BOM_LON BOM_TYPE BOM_WIND BOM_PRES BOM_TNUM BOM_CI BOM_RMW BOM_R34_NE BOM_R34_SE BOM_R34_SW BOM_R34_NW BOM_R50_NE BOM_R50_SE BOM_R50_SW BOM_R50_NW BOM_R64_NE BOM_R64_SE BOM_R64_SW BOM_R64_NW BOM_ROCI BOM_POCI BOM_EYE BOM_POS_METHOD BOM_PRES_METHOD NADI_LAT NADI_LON NADI_CAT NADI_WIND NADI_PRES WELLINGTON_LAT WELLINGTON_LON WELLINGTON_WIND WELLINGTON_PRES DS824_LAT DS824_LON DS824_STAGE DS824_WIND DS824_PRES TD9636_LAT TD9636_LON TD9636_STAGE TD9636_WIND TD9636_PRES TD9635_LAT TD9635_LON TD9635_WIND TD9635_PRES TD9635_ROCI NEUMANN_LAT NEUMANN_LON NEUMANN_CLASS NEUMANN_WIND NEUMANN_PRES MLC_LAT MLC_LON MLC_CLASS MLC_WIND MLC_PRES USA_GUST BOM_GUST BOM_GUST_PER REUNION_GUST REUNION_GUST_PER USA_SEAHGT USA_SEARAD_NE USA_SEARAD_SE USA_SEARAD_SW USA_SEARAD_NW STORM_SPEED STORM_DIR
2000333S11140 2001 109 SP EA SAM 2000-11-28 00:00:00 NR -11.0000 140.000 20 1005 bom main 228 228 ______O_______ -1 -11.0000 140.000 20 20 1005 1.00000 12 269
2000333S11140 2001 109 SP EA SAM 2000-11-28 03:00:00 NR -11.0077 139.365 main 274 235 ______P_______ -1 -11.0077 139.365 20 22 1003 13 270
2000333S11140 2001 109 SP EA SAM 2000-11-28 06:00:00 NR -11.0000 138.700 25 1001 bom main 235 181 ______O_______ -1 -11.0000 138.700 20 25 1001 1.50000 13 272
2000333S11140 2001 109 SP EA SAM 2000-11-28 09:00:00 NR -10.9650 137.993 main 181 150 ______P_______ -1 -10.9650 137.993 20 25 1002 14 274
2000333S11140 2001 109 SP EA SAM 2000-11-28 12:00:00 NR -10.9000 137.300 25 1003 bom main 150 130 ______O_______ -1 -10.9000 137.300 20 25 1003 1.50000 13 277
2000333S11140 2001 109 SP EA SAM 2000-11-28 15:00:00 NR -10.8073 136.678 main 136 134 ______P_______ -1 -10.8073 136.678 20 25 1002 12 280
2000333S11140 2001 109 SP EA SAM 2000-11-28 18:00:00 NR -10.7000 136.100 25 1002 bom main 151 151 ______O_______ -1 -10.7000 136.100 20 25 1002 1.50000 11 280
2000333S11140 2001 109 SP EA SAM 2000-11-28 21:00:00 NR -10.6074 135.528 main 168 168 ______P_______ -1 -10.6074 135.528 20 25 1002 11 280
2000333S11140 2001 109 SP EA SAM 2000-11-29 00:00:00 NR -10.5000 135.000 25 1003 bom main 180 179 ______O_______ -1 -10.5000 135.000 20 25 1003 1.50000 10 285
2000333S11140 2001 109 SI WA SAM 2000-11-29 03:00:00 NR -10.3498 134.550 main 189 176 ______P_______ -1 -10.3498 134.550 20 25 1002 9 289
2000333S11140 2001 109 SI WA SAM 2000-11-29 06:00:00 NR -10.2000 134.100 25 1001 bom main 182 164 ______O_______ -1 -10.2000 134.100 20 25 1001 1.50000 10 286
2000333S11140 2001 109 SI WA SAM 2000-11-29 09:00:00 NR -10.0775 133.557 main 164 154 ______P_______ -1 -10.0775 133.557 20 25 1002 11 280
2000333S11140 2001 109 SI WA SAM 2000-11-29 12:00:00 NR -10.0000 133.000 25 1003 bom main 154 136 ______O_______ -1 -10.0000 133.000 20 25 1003 1.50000 11 275
2000333S11140 2001 109 SI WA SAM 2000-11-29 15:00:00 NR -9.98489 132.493 main 136 134 ______P_______ -1 -9.98489 132.493 20 25 1002 10 270
2000333S11140 2001 109 SI WA SAM 2000-11-29 18:00:00 NR -10.0000 132.000 25 1001 bom main 134 134 ______O_______ -1 -10.0000 132.000 20 25 1001 1.50000 10 269
2000333S11140 2001 109 SI WA SAM 2000-11-29 21:00:00 NR -9.99992 131.500 main 145 145 ______P_______ -1 -9.99992 131.500 20 25 1002 10 270
2000333S11140 2001 109 SI WA SAM 2000-11-30 00:00:00 NR -10.0000 131.000 25 1003 bom main 146 145 ______O_______ -1 -10.0000 131.000 20 25 1003 1.50000 10 270
2000333S11140 2001 109 SI WA SAM 2000-11-30 03:00:00 NR -10.0001 130.463 main 145 145 ______P_______ -1 -10.0001 130.463 20 25 1002 10 270
2000333S11140 2001 109 SI WA SAM 2000-11-30 06:00:00 NR -10.0000 130.000 25 1001 bom main 155 155 ______O_______ -1 -10.0000 130.000 20 25 1001 1.50000 8 270
2000333S11140 2001 109 SI WA SAM 2000-11-30 09:00:00 NR -9.99990 129.690 main 166 166 ______P_______ -1 -9.99990 129.690 20 25 1001 5 270
2000333S11140 2001 109 SI WA SAM 2000-11-30 12:00:00 NR -10.0000 129.500 25 1002 bom main 174 174 ______O_______ -1 -10.0000 129.500 20 25 1002 1.50000 3 271
2000333S11140 2001 109 SI WA SAM 2000-11-30 15:00:00 NR -9.99246 129.385 main 179 179 ______P_______ -1 -9.99246 129.385 20 25 1001 2 270
2000333S11140 2001 109 SI WA SAM 2000-11-30 18:00:00 NR -10.0000 129.300 25 1001 bom main 185 185 ______O_______ -1 -10.0000 129.300 20 25 1001 1.50000 2 260
2000333S11140 2001 109 SI WA SAM 2000-11-30 21:00:00 NR -10.0350 129.143 main 197 188 ______P_______ -1 -10.0350 129.143 20 25 1002 3 251
2000333S11140 2001 109 SI WA SAM 2000-12-01 00:00:00 NR -10.1000 129.000 25 1003 bom main 195 187 ______O_______ -1 -10.1000 129.000 20 25 1003 1.50000 3 233
2000333S11140 2001 109 SI WA SAM 2000-12-01 03:00:00 NR -10.1925 128.935 main 195 187 ______P_______ -1 -10.1925 128.935 20 25 1002 2 207
2000333S11140 2001 109 SI WA SAM 2000-12-01 06:00:00 NR -10.3000 128.900 25 1001 bom main 187 179 ______O_______ -1 -10.3000 128.900 20 25 1001 2.00000 2 201
2000333S11140 2001 109 SI WA SAM 2000-12-01 09:00:00 NR -10.4075 128.850 main 179 179 ______P_______ -1 -10.4075 128.850 20 25 1001 2 207
2000333S11140 2001 109 SI WA SAM 2000-12-01 12:00:00 NR -10.5000 128.800 25 1001 bom main 180 174 ______O_______ -1 -10.5000 128.800 20 25 1001 2.00000 2 212
2000333S11140 2001 109 SI WA SAM 2000-12-01 15:00:00 NR -10.5575 128.750 main 174 174 ______P_______ -1 -10.5575 128.750 20 25 1000 1 223
2000333S11140 2001 109 SI WA SAM 2000-12-01 18:00:00 NR -10.6000 128.700 25 1000 bom main 183 183 ______O_______ -1 -10.6000 128.700 20 25 1000 2.00000 1 227
2000333S11140 2001 109 SI WA SAM 2000-12-01 21:00:00 NR -10.6425 128.657 main 183 183 ______P_______ -1 -10.6425 128.657 20 25 1000 1 223
2000333S11140 2001 109 SI WA SAM 2000-12-02 00:00:00 NR -10.7000 128.600 25 1001 bom main 186 181 ______O_______ -1 -10.7000 128.600 20 25 1001 2.00000 2 223
2000333S11140 2001 109 SI WA SAM 2000-12-02 03:00:00 NR -10.8000 128.508 main 191 187 ______P_______ -1 -10.8000 128.508 20 25 1000 3 225
2000333S11140 2001 109 SI WA SAM 2000-12-02 06:00:00 NR -10.9000 128.400 25 999 bom main 197 197 ______O_______ -1 -10.9000 128.400 20 25 999 2.00000 3 234
2000333S11140 2001 109 SI WA SAM 2000-12-02 09:00:00 NR -10.9500 128.292 main 204 204 ______P_______ -1 -10.9500 128.292 20 25 999 2 243
2000333S11140 2001 109 SI WA SAM 2000-12-02 12:00:00 NR -11.0000 128.200 25 1000 bom main 214 214 ______O_______ -1 -11.0000 128.200 20 25 1000 2.00000 2 231
2000333S11140 2001 109 SI WA SAM 2000-12-02 15:00:00 NR -11.0850 128.128 main 222 220 ______P_______ -1 -11.0850 128.128 20 25 999 2 207
2000333S11140 2001 109 SI WA SAM 2000-12-02 18:00:00 NR -11.2000 128.100 25 998 bom main 220 219 ______O_______ -1 -11.2000 128.100 20 25 998 2.00000 2 174
2000333S11140 2001 109 SI WA SAM 2000-12-02 21:00:00 NR -11.3275 128.128 main 219 218 ______P_______ -1 -11.3275 128.128 20 25 999 2 193
2000333S11140 2001 109 SI WA SAM 2000-12-03 00:00:00 TS -11.4000 128.067 25 1000 bom main 218 207 O_____O_____O_ jtwc_sh SH032001 -11.2000 127.800 TD 25 -1 -11.5000 128.200 20 25 1000 2.00000 -11.2000 127.800 TC 25 4 174
2000333S11140 2001 109 SI WA SAM 2000-12-03 03:00:00 TS -11.7363 128.169 main 207 197 P_____P_____P_ SH032001 -11.7451 128.037 TD 25 -1 -11.7275 128.300 20 27 998 -11.7451 128.037 TC 25 8 164
2000333S11140 2001 109 SI WA SAM 2000-12-03 06:00:00 TS -12.1200 128.280 30 997 bom main 198 198 O_____O_____O_ jtwc_sh SH032001 -12.2000 128.200 TD 25 -1 -12.0000 128.400 20 30 997 2.50000 -12.2000 128.200 TC 25 7 168
2000333S11140 2001 109 SI WA SAM 2000-12-03 09:00:00 TS -12.4383 128.318 main 203 175 P_____P_____P_ SH032001 -12.5150 128.238 TD 25 -1 -12.2850 128.480 20 30 997 -12.5150 128.238 TC 25 6 0
2000333S11140 2001 109 SI WA SAM 2000-12-03 12:00:00 TS -12.7333 128.300 30 997 bom main 175 139 O_____O_____O_ jtwc_sh SH032001 -12.8000 128.200 TD 25 -1 -12.6000 128.500 20 30 997 2.50000 -12.8000 128.200 TC 25 7 182
2000333S11140 2001 109 SI WA SAM 2000-12-03 15:00:00 TS -13.1091 128.278 main 139 95 P_____P_____P_ SH032001 -13.1925 128.187 TD 27 -1 -12.9424 128.460 20 30 997 -13.1925 128.187 TC 27 8 189
2000333S11140 2001 109 SI WA SAM 2000-12-03 18:00:00 TS -13.5000 128.167 30 997 bom main 95 46 O_____O_____O_ jtwc_sh SH032001 -13.6000 128.100 TD 30 -1 -13.3000 128.300 20 30 997 2.50000 -13.6000 128.100 TC 30 9 203
2000333S11140 2001 109 SI WA SAM 2000-12-03 21:00:00 TS -13.8899 127.941 main 39 0 P_____P_____P_ SH032001 -13.9949 127.918 TD 30 -1 -13.6801 127.988 20 30 997 -13.9949 127.918 TC 30 9 218
2000333S11140 2001 109 SI WA SAM 2000-12-04 00:00:00 TS -14.2000 127.600 30 998 bom main 0 0 O_____O_____O_ jtwc_sh SH032001 -14.3000 127.600 TD 30 -1 -14.0000 127.600 20 30 998 2.50000 -14.3000 127.600 TC 30 9 238
2000333S11140 2001 109 SI WA SAM 2000-12-04 03:00:00 TS -14.3617 127.172 main 0 0 P_____P_____P_ SH032001 -14.4451 127.130 TD 30 -1 -14.1949 127.257 20 30 997 -14.4451 127.130 TC 30 9 255
2000333S11140 2001 109 SI WA SAM 2000-12-04 06:00:00 TS -14.4333 126.700 30 996 bom main 0 0 O_____O_____O_ jtwc_sh SH032001 -14.5000 126.600 TD 30 -1 -14.3000 126.900 20 30 996 2.50000 134 3 7 -14.5000 126.600 TC 30 9 261
2000333S11140 2001 109 SI WA SAM 2000-12-04 09:00:00 TS -14.5008 126.249 main 0 0 P_____P_____P_ SH032001 -14.5650 126.120 TD 30 -1 -14.3725 126.507 20 32 995 134 -14.5650 126.120 TC 30 8 263
2000333S11140 2001 109 SI WA SAM 2000-12-04 12:00:00 TS -14.5333 125.833 35 994 bom main 10 0 O_____O_____O_ jtwc_sh SH032001 -14.6000 125.700 TD 30 -1 -14.4000 126.100 30 35 994 3.00000 134 3 7 -14.6000 125.700 TC 30 7 266
2000333S11140 2001 109 SI WA SAM 2000-12-04 15:00:00 TS -14.5482 125.483 main 10 10 P_____P_____P_ SH032001 -14.6148 125.385 TD 30 -1 -14.4150 125.677 30 35 994 161 -14.6148 125.385 TC 30 6 270
2000333S11140 2001 109 SI WA SAM 2000-12-04 18:00:00 TS -14.5333 125.167 35 994 bom main 11 11 O_____O_____O_ jtwc_sh SH032001 -14.6000 125.100 TD 30 -1 -14.4000 125.300 30 35 994 3.00000 188 3 7 -14.6000 125.100 TC 30 6 275
2000333S11140 2001 109 SI WA SAM 2000-12-04 21:00:00 TS -14.4917 124.851 main 34 34 P_____P_____P_ SH032001 -14.5500 124.757 TD 30 -1 -14.3752 125.038 30 37 993 188 -14.5500 124.757 TC 30 6 279
2000333S11140 2001 109 SI WA SAM 2000-12-05 00:00:00 TS -14.4333 124.533 40 992 bom main 78 78 O_____O_____O_ jtwc_sh SH032001 -14.5000 124.400 TD 30 -1 -14.3000 124.800 30 40 992 3.00000 188 3 5 -14.5000 124.400 TC 30 6 280
2000333S11140 2001 109 SI WA SAM 2000-12-05 03:00:00 TS -14.3773 124.192 main 110 110 P_____P_____P_ SH032001 -14.4925 124.035 TD 30 -1 -14.1469 124.506 30 40 990 188 -14.4925 124.035 TC 30 7 279
2000333S11140 2001 109 SI WA SAM 2000-12-05 04:00:00 TS -14.3631 124.078 40 990 bom main 116 116 P_____O_____P_ SH032001 -14.4946 123.918 TD 30 -1 -14.1000 124.400 30 40 990 3.00000 188 3 5 -14.4946 123.918 TC 30 7 276
2000333S11140 2001 109 SI WA SAM 2000-12-05 06:00:00 TS -14.3441 123.859 main 139 139 O_____P_____O_ jtwc_sh SH032001 -14.5000 123.700 TD 30 -1 -14.0324 124.176 30 43 988 188 -14.5000 123.700 TC 30 6 274
2000333S11140 2001 109 SI WA SAM 2000-12-05 09:00:00 TS -14.3261 123.563 main 163 163 P_____P_____P_ SH032001 -14.4924 123.435 TD 32 -1 -13.9936 123.820 30 48 985 188 -14.4924 123.435 TC 32 6 272
2000333S11140 2001 109 SI WA SAM 2000-12-05 10:00:00 TS -14.3280 123.471 50 985 bom main 172 172 P_____O_____P_ SH032001 -14.4920 123.356 TD 33 -1 -14.0000 123.700 30 50 985 3.50000 188 3 5 -14.4920 123.356 TC 33 5 266
2000333S11140 2001 109 SI WA SAM 2000-12-05 12:00:00 TS -14.3458 123.291 main 187 178 O_____P_____O_ jtwc_sh SH032001 -14.5000 123.200 TS 35 0 -14.0375 123.472 30 51 983 196 -14.5000 123.200 TC 35 6 260
2000333S11140 2001 109 SI WA SAM 2000-12-05 15:00:00 TS -14.4077 123.002 main 201 201 P_____P_____P_ SH032001 -14.5350 122.943 TS 35 0 -14.1530 123.122 30 54 980 210 -14.5350 122.943 TC 35 6 256
2000333S11140 2001 109 SI WA SAM 2000-12-05 16:00:00 TS -14.4356 122.906 55 980 bom main 209 202 P_____O_____P_ SH032001 -14.5533 122.859 TS 35 0 -14.2000 123.000 30 55 980 4.00000 215 3 5 -14.5533 122.859 TC 35 6 252
2000333S11140 2001 109 SI WA SAM 2000-12-05 18:00:00 TS -14.5010 122.701 main 218 214 O_____P_____O_ jtwc_sh SH032001 -14.6000 122.700 TS 35 0 -14.3031 122.703 30 55 980 232 -14.6000 122.700 TC 35 6 249
2000333S11140 2001 109 SI WA SAM 2000-12-05 21:00:00 TS -14.6146 122.427 main 219 208 P_____P_____P_ SH032001 -14.6925 122.493 TS 40 0 -14.4589 122.296 30 55 980 259 -14.6925 122.493 TC 40 6 246
2000333S11140 2001 109 SI WA SAM 2000-12-05 22:00:00 TS -14.6519 122.352 55 980 bom main 208 211 P_____O_____P_ SH032001 -14.7279 122.428 TS 41 0 -14.5000 122.200 30 55 980 4.00000 269 3 5 -14.7279 122.428 TC 41 4 243
2000333S11140 2001 109 SI WA SAM 2000-12-06 00:00:00 TS -14.7091 122.237 main 214 208 O_____P_____O_ jtwc_sh SH032001 -14.8000 122.300 TS 45 0 -14.5273 122.111 30 56 978 269 -14.8000 122.300 TC 45 3 243
2000333S11140 2001 109 SI WA SAM 2000-12-06 03:00:00 TS -14.7786 122.089 main 208 208 P_____P_____P_ SH032001 -14.8850 122.085 TS 45 0 -14.5657 122.098 30 59 975 269 -14.8850 122.085 TC 45 3 241
2000333S11140 2001 109 SI WA SAM 2000-12-06 04:00:00 TS -14.8117 122.045 60 975 bom main 213 203 P_____O_____P_ SH032001 -14.9175 122.018 TS 45 0 -14.6000 122.100 30 60 975 4.00000 269 3 5 -14.9175 122.018 TC 45 4 226
2000333S11140 2001 109 SI WA SAM 2000-12-06 06:00:00 TS -14.9081 121.954 main 203 189 O_____P_____O_ jtwc_sh SH032001 -15.0000 121.900 TS 45 0 -14.7242 122.061 30 60 975 251 -15.0000 121.900 TC 45 4 212
2000333S11140 2001 109 SI WA SAM 2000-12-06 09:00:00 TS -15.1066 121.855 main 189 187 P_____P_____P_ SH032001 -15.1625 121.777 TS 47 0 -14.9948 122.011 30 60 975 224 -15.1625 121.777 TC 47 5 203
2000333S11140 2001 109 SI WA SAM 2000-12-06 10:00:00 TS -15.1881 121.832 60 975 bom main 187 170 P_____O_____P_ SH032001 -15.2321 121.748 TS 48 0 -15.1000 122.000 30 60 975 4.00000 215 3 5 -15.2321 121.748 TC 48 6 191
2000333S11140 2001 109 SI WA SAM 2000-12-06 12:00:00 TS -15.3753 121.802 main 170 146 O_____P_____O_ jtwc_sh SH032001 -15.4000 121.700 TS 50 0 -15.3259 122.007 30 60 975 215 -15.4000 121.700 TC 50 6 187
2000333S11140 2001 109 SI WA SAM 2000-12-06 15:00:00 TS -15.7190 121.766 main 146 139 P_____P_____P_ SH032001 -15.7350 121.642 TS 52 0 -15.6869 122.013 30 60 975 215 -15.7350 121.642 TC 52 7 186
2000333S11140 2001 109 SI WA SAM 2000-12-06 16:00:00 TS -15.8388 121.752 60 975 bom main 139 132 P_____O_____P_ SH032001 -15.8583 121.628 TS 53 0 -15.8000 122.000 30 60 975 4.00000 215 3 5 -15.8583 121.628 TC 53 7 188
2000333S11140 2001 109 SI WA SAM 2000-12-06 18:00:00 TS -16.0673 121.715 main 123 115 O_____P_____O_ jtwc_sh SH032001 -16.1000 121.600 TS 55 0 -16.0018 121.945 30 60 975 215 -16.1000 121.600 TC 55 7 190
2000333S11140 2001 109 SI WA SAM 2000-12-06 19:00:00 TS -16.1722 121.691 60 975 bom main 115 108 P_____O_____P_ SH032001 -16.2083 121.586 TS 56 0 -16.1000 121.900 30 60 975 4.00000 215 3 5 -16.2083 121.586 TC 56 6 194
2000333S11140 2001 109 SI WA SAM 2000-12-06 21:00:00 TS -16.3767 121.629 main 108 100 P_____P_____P_ SH032001 -16.4150 121.557 TS 60 0 -16.3000 121.772 30 63 971 215 -16.4150 121.557 TC 60 6 197
2000333S11140 2001 109 SI WA SAM 2000-12-06 22:00:00 TS -16.4755 121.594 65 970 bom main 100 93 P_____O_____P_ SH032001 -16.5133 121.541 TS 61 0 -16.4000 121.700 40 65 970 4.00000 215 3 5 -16.5133 121.541 TC 61 6 200
2000333S11140 2001 109 SI WA SAM 2000-12-07 00:00:00 TS -16.6667 121.522 main 96 91 O_____P_____O_ jtwc_sh SH032001 -16.7000 121.500 TY 65 1 -16.6000 121.567 40 65 970 215 -16.7000 121.500 TC 65 6 200
2000333S11140 2001 109 SI WA SAM 2000-12-07 01:00:00 TS -16.7611 121.482 65 970 bom main 91 91 P_____O_____P_ SH032001 -16.7917 121.472 TY 66 1 -16.7000 121.500 40 65 970 4.50000 215 16 6 5 -16.7917 121.472 TC 66 6 205
2000333S11140 2001 109 SI WA SAM 2000-12-07 03:00:00 TS -16.9407 121.394 main 96 91 P_____P_____P_ SH032001 -16.9650 121.408 TY 70 1 -16.8921 121.367 40 65 970 232 -16.9650 121.408 TC 70 6 205
2000333S11140 2001 109 SI WA SAM 2000-12-07 04:00:00 TS -17.0311 121.348 65 970 bom main 101 95 P_____O_____P_ SH032001 -17.0467 121.372 TY 71 1 -17.0000 121.300 40 65 970 4.50000 242 16 6 5 -17.0467 121.372 TC 71 6 206
2000333S11140 2001 109 SI WA SAM 2000-12-07 06:00:00 TS -17.2257 121.253 main 95 95 O_____P_____O_ jtwc_sh SH032001 -17.2000 121.300 TY 75 1 -17.2770 121.159 40 65 970 242 -17.2000 121.300 TC 75 6 205
2000333S11140 2001 109 SI WA SAM 2000-12-07 07:00:00 TS -17.3184 121.209 65 970 bom main 101 98 P_____O_____P_ SH032001 -17.2776 121.264 TY 76 1 -17.4000 121.100 40 65 970 4.50000 242 11 6 5 -17.2776 121.264 TC 76 5 205
2000333S11140 2001 109 SI WA SAM 2000-12-07 09:00:00 TS -17.4657 121.138 main 106 106 P_____P_____P_ SH032001 -17.4225 121.193 TY 80 1 -17.5521 121.028 40 71 966 224 -17.4225 121.193 TC 80 5 204
2000333S11140 2001 109 SI WA SAM 2000-12-07 10:00:00 TS -17.5253 121.106 75 965 bom main 106 106 P_____O_____P_ SH032001 -17.4879 121.159 TY 81 1 -17.6000 121.000 40 75 965 4.50000 215 12 6 5 -17.4879 121.159 TC 81 4 209
2000333S11140 2001 109 SI WA SAM 2000-12-07 12:00:00 TS -17.6240 121.044 main 116 116 O_____P_____O_ jtwc_sh SH032001 -17.6000 121.100 TY 85 2 -17.6721 120.933 40 78 961 215 -17.6000 121.100 TC 85 3 213
2000333S11140 2001 109 SI WA SAM 2000-12-07 13:00:00 TS -17.6614 121.017 80 960 bom main 117 117 P_____O_____P_ SH032001 -17.6421 121.075 TY 89 2 -17.7000 120.900 40 80 960 5.00000 215 10 6 5 -17.6421 121.075 TC 89 3 218
2000333S11140 2001 109 SI WA SAM 2000-12-07 15:00:00 TS -17.7272 120.965 main 117 117 P_____P_____P_ SH032001 -17.7075 121.035 TY 97 3 -17.7667 120.825 40 86 956 197 -17.7075 121.035 TC 97 2 216
2000333S11140 2001 109 SI WA SAM 2000-12-07 16:00:00 TS -17.7575 120.947 90 955 bom main 123 123 P_____O_____P_ SH032001 -17.7363 121.020 TY 101 3 -17.8000 120.800 40 90 955 5.50000 188 10 6 5 -17.7363 121.020 TC 101 2 201
2000333S11140 2001 109 SI WA SAM 2000-12-07 18:00:00 TS -17.8249 120.932 main 123 115 O_____P_____O_ jtwc_sh SH032001 -17.8000 121.000 TY 110 3 -17.8746 120.795 40 90 951 188 -17.8000 121.000 TC 110 2 0
2000333S11140 2001 109 SI WA SAM 2000-12-07 19:00:00 TS -17.8629 120.926 90 950 bom main 115 115 P_____O_____P_ SH032001 -17.8443 120.989 TY 110 3 -17.9000 120.800 40 90 950 5.50000 188 9 6 5 -17.8443 120.989 TC 110 2 191
2000333S11140 2001 109 SI WA SAM 2000-12-07 21:00:00 TS -17.9275 120.916 main 115 107 P_____P_____P_ SH032001 -17.9425 120.978 TY 110 3 -17.8975 120.792 40 90 950 188 -17.9425 120.978 TC 110 2 0
2000333S11140 2001 109 SI WA SAM 2000-12-07 22:00:00 TS -17.9630 120.919 90 950 bom main 107 107 P_____O_____P_ SH032001 -17.9946 120.979 TY 110 3 -17.9000 120.800 40 90 950 5.50000 188 9 6 5 -17.9946 120.979 TC 110 3 164
2000333S11140 2001 109 SI WA SAM 2000-12-08 00:00:00 TS -18.0537 120.954 main 92 92 O_____P_____O_ jtwc_sh SH032001 -18.1000 121.000 TY 110 3 -17.9612 120.861 40 90 950 188 -18.1000 121.000 TC 110 3 156
2000333S11140 2001 109 SI WA SAM 2000-12-08 01:00:00 TS -18.0982 120.980 90 950 bom main 92 86 P_____O_____P_ SH032001 -18.1474 121.019 TY 110 3 -18.0000 120.900 40 90 950 5.50000 188 9 6 5 -18.1474 121.019 TC 110 3 148
2000333S11140 2001 109 SI WA SAM 2000-12-08 03:00:00 TS -18.1786 121.038 main 86 77 P_____P_____P_ SH032001 -18.2425 121.078 TY 110 3 -18.0509 120.959 40 90 950 188 -18.2425 121.078 TC 110 3 145
2000333S11140 2001 109 SI WA SAM 2000-12-08 04:00:00 TS -18.2281 121.076 90 950 bom main 77 57 P_____O_____P_ SH032001 -18.2921 121.115 TY 110 3 -18.1000 121.000 40 90 950 5.50000 188 9 6 5 -18.2921 121.115 TC 110 5 145
2000333S11140 2001 109 SI WA SAM 2000-12-08 06:00:00 TS -18.3657 121.176 main 57 57 O_____P_____O_ jtwc_sh SH032001 -18.4000 121.200 TY 110 3 -18.2970 121.128 40 96 946 188 -18.4000 121.200 TC 110 5 146
2000333S11140 2001 109 SI WA SAM 2000-12-08 07:00:00 TS -18.4406 121.230 100 945 bom main 57 42 P_____O_____P_ SH032001 -18.4610 121.244 TY 109 3 -18.4000 121.200 40 100 945 6.00000 188 8 6 5 -18.4610 121.244 TC 109 5 144
2000333S11140 2001 109 SI WA SAM 2000-12-08 09:00:00 TS -18.5720 121.339 main 42 31 P_____P_____P_ SH032001 -18.5925 121.342 TY 107 3 -18.5309 121.333 40 106 941 170 -18.5925 121.342 TC 107 5 141
2000333S11140 2001 109 SI WA SAM 2000-12-08 10:00:00 TS -18.6408 121.396 110 940 bom main 31 21 P_____O_____P_ SH032001 -18.6612 121.395 TY 106 3 -18.6000 121.400 40 110 940 6.50000 161 8 6 6 -18.6612 121.395 TC 106 6 143
2000333S11140 2001 109 SI WA SAM 2000-12-08 12:00:00 TS -18.7982 121.516 main 21 10 O_____P_____O_ jtwc_sh SH032001 -18.8000 121.500 TY 105 3 -18.7946 121.549 40 110 936 161 -18.8000 121.500 TC 105 6 146
2000333S11140 2001 109 SI WA SAM 2000-12-08 13:00:00 TS -18.8760 121.565 110 935 bom main 10 0 P_____O_____P_ SH032001 -18.8640 121.547 TY 103 3 -18.9000 121.600 40 110 935 6.50000 161 8 6 6 -18.8640 121.547 TC 103 5 157
2000333S11140 2001 109 SI WA SAM 2000-12-08 15:00:00 TS -19.0336 121.624 main 0 0 P_____P_____P_ SH032001 -18.9925 121.643 TY 100 3 -19.1158 121.587 40 103 938 161 -18.9925 121.643 TC 100 5 158
2000333S11140 2001 109 SI WA SAM 2000-12-08 16:00:00 TS -19.1058 121.661 100 940 bom main 0 0 P_____O_____P_ SH032001 -19.0587 121.692 TY 98 3 -19.2000 121.600 40 100 940 6.00000 161 8 6 5 -19.0587 121.692 TC 98 5 139
2000333S11140 2001 109 SI WA SAM 2000-12-08 18:00:00 TS -19.2232 121.795 main 0 0 O_____P_____O_ jtwc_sh SH032001 -19.2000 121.800 TY 95 2 -19.2696 121.784 40 90 946 161 -19.2000 121.800 TC 95 5 132
2000333S11140 2001 109 SI WA SAM 2000-12-08 19:00:00 TS -19.2833 121.872 85 950 bom main 0 0 P_____O_____P_ SH032001 -19.2750 121.858 TY 92 2 -19.3000 121.900 40 85 950 161 8 6 5 -19.2750 121.858 TC 92 6 134
2000333S11140 2001 109 SI WA SAM 2000-12-08 21:00:00 TS -19.4300 122.026 main 0 0 P_____P_____P_ SH032001 -19.4350 121.985 TY 87 2 -19.4200 122.108 40 81 953 161 -19.4350 121.985 TC 87 6 137
2000333S11140 2001 109 SI WA SAM 2000-12-08 22:00:00 TS -19.5133 122.102 80 955 bom main 0 0 P_____O_____P_ SH032001 -19.5200 122.053 TY 84 2 -19.5000 122.200 40 80 955 161 8 6 5 -19.5200 122.053 TC 84 7 142
2000333S11140 2001 109 SI WA SAM 2000-12-09 00:00:00 TS -19.6982 122.246 main 0 0 O_____P_____O_ jtwc_sh SH032001 -19.7000 122.200 TY 80 1 -19.6946 122.339 40 73 958 161 -19.7000 122.200 TC 80 7 145
2000333S11140 2001 109 SI WA SAM 2000-12-09 01:00:00 TS -19.7997 122.320 70 960 bom main 0 0 P_____O_____P_ SH032001 -19.7995 122.280 TY 78 1 -19.8000 122.400 40 70 960 161 6 5 -19.7995 122.280 TC 78 8 145
2000333S11140 2001 109 SI WA SAM 2000-12-09 03:00:00 TS -20.0050 122.475 main 0 0 P_____P_____P_ SH032001 -20.0075 122.450 TY 75 1 -20.0000 122.525 40 66 963 178 -20.0075 122.450 TC 75 8 144
2000333S11140 2001 109 SI WA SAM 2000-12-09 04:00:00 TS -20.1069 122.557 65 965 bom main 0 0 P_____O_____P_ SH032001 -20.1104 122.536 TY 73 1 -20.1000 122.600 40 65 965 188 4 5 -20.1104 122.536 TC 73 8 141
2000333S11140 2001 109 SI WA SAM 2000-12-09 06:00:00 TS -20.3026 122.729 main 0 0 O_____P_____O_ jtwc_sh SH032001 -20.3000 122.700 TY 70 1 -20.3079 122.787 40 61 968 188 -20.3000 122.700 TC 70 7 140
2000333S11140 2001 109 SI WA SAM 2000-12-09 07:00:00 TS -20.3871 122.811 60 970 bom main 0 0 P_____O_____P_ SH032001 -20.3807 122.767 TY 67 1 -20.4000 122.900 30 60 970 188 4 5 -20.3807 122.767 TC 67 7 133
2000333S11140 2001 109 SI WA SAM 2000-12-09 09:00:00 TS -20.5279 122.985 main 0 0 P_____P_____P_ SH032001 -20.5224 122.893 TY 62 0 -20.5388 123.169 30 56 973 188 -20.5224 122.893 TC 62 6 130
2000333S11140 2001 109 SI WA SAM 2000-12-09 10:00:00 TS -20.5902 123.071 55 975 bom main 0 0 P_____O_____P_ SH032001 -20.5853 122.956 TY 59 0 -20.6000 123.300 30 55 975 188 4 5 -20.5853 122.956 TC 59 6 128
2000333S11140 2001 109 SI WA SAM 2000-12-09 12:00:00 TS -20.7137 123.235 main 0 0 O_____P_____O_ jtwc_sh SH032001 -20.7000 123.100 TS 55 0 -20.7412 123.505 30 51 978 188 -20.7000 123.100 TC 55 6 128
2000333S11140 2001 109 SI WA SAM 2000-12-09 13:00:00 TS -20.7722 123.326 50 980 bom main 0 0 P_____O_____P_ SH032001 -20.7583 123.189 TS 54 0 -20.8000 123.600 30 50 980 188 4 5 -20.7583 123.189 TC 54 6 120
2000333S11140 2001 109 SI WA SAM 2000-12-09 15:00:00 TS -20.8676 123.525 main 0 0 P_____P_____P_ SH032001 -20.8650 123.385 TS 52 0 -20.8728 123.805 30 46 980 170 -20.8650 123.385 TC 52 6 116
2000333S11140 2001 109 SI WA SAM 2000-12-09 16:00:00 TS -20.9089 123.626 45 980 bom main 0 0 P_____O_____P_ SH032001 -20.9133 123.489 TS 51 0 -20.9000 123.900 30 45 980 161 4 5 -20.9133 123.489 TC 51 6 114
2000333S11140 2001 109 SI WA SAM 2000-12-09 18:00:00 TS -20.9857 123.815 main 0 0 O_____P_____O_ jtwc_sh SH032001 -21.0000 123.700 TS 50 0 -20.9571 124.046 30 41 981 161 -21.0000 123.700 TC 50 6 114
2000333S11140 2001 109 SI WA SAM 2000-12-09 21:00:00 TS -21.0952 124.077 main 0 0 P_____P_____P_ SH032001 -21.1149 124.000 TS 47 0 -21.0557 124.230 30 36 984 161 -21.1149 124.000 TC 47 5 114
2000333S11140 2001 109 SI WA SAM 2000-12-09 22:00:00 TS -21.1311 124.167 35 985 bom main 0 0 P_____O_____P_ SH032001 -21.1466 124.100 TS 46 0 -21.1000 124.300 30 35 985 161 4 5 -21.1466 124.100 TC 46 6 113
2000333S11140 2001 109 SI WA SAM 2000-12-10 00:00:00 TS -21.2077 124.367 main 0 0 O_____P_____O_ jtwc_sh SH032001 -21.2000 124.300 TS 45 0 -21.2231 124.500 30 35 985 152 -21.2000 124.300 TC 45 6 111
2000333S11140 2001 109 SI WA SAM 2000-12-10 03:00:00 TS -21.3163 124.681 main 0 0 P_____P_____P_ SH032001 -21.2575 124.615 TS 42 0 -21.4339 124.812 30 35 985 138 -21.2575 124.615 TC 42 6 110
2000333S11140 2001 109 SI WA SAM 2000-12-10 04:00:00 TS -21.3481 124.777 35 985 bom main 0 0 P_____O_____P_ SH032001 -21.2721 124.716 TS 41 0 -21.5000 124.900 30 35 985 134 4 5 -21.2721 124.716 TC 41 5 111
2000333S11140 2001 109 SI WA SAM 2000-12-10 06:00:00 TS -21.4096 124.939 main 0 0 O_____P_____O_ jtwc_sh SH032001 -21.3000 124.900 TS 40 0 -21.6287 125.017 30 33 986 116 -21.3000 124.900 TC 40 4 116
2000333S11140 2001 109 SI WA SAM 2000-12-10 09:00:00 TS -21.5014 125.122 main 0 0 P_____P_____P_ SH032001 -21.3649 125.107 TS 35 0 -21.7746 125.151 30 30 989 89 -21.3649 125.107 TC 35 4 117
2000333S11140 2001 109 SI WA SAM 2000-12-10 10:00:00 TS -21.5216 125.180 30 990 bom main 0 0 P_____O_____P_ SH032001 -21.3824 125.170 TS 33 -1 -21.8000 125.200 20 30 990 80 4 5 -21.3824 125.170 TC 33 4 107
2000333S11140 2001 109 SI WA SAM 2000-12-10 12:00:00 TS -21.5584 125.319 main 0 0 O_____P_____O_ jtwc_sh SH032001 -21.4000 125.300 TD 30 -1 -21.7959 125.349 20 30 990 80 -21.4000 125.300 TC 30 4 93
2000333S11140 2001 109 SI WA SAM 2000-12-10 15:00:00 TS -21.5396 125.564 main 0 0 P_____P_____P_ SH032001 -21.3701 125.535 TD 27 -1 -21.7090 125.592 20 30 990 80 -21.3701 125.535 TC 27 5 83
2000333S11140 2001 109 SI WA SAM 2000-12-10 18:00:00 TS -21.5000 125.800 30 990 bom main 0 0 O_____O_____O_ jtwc_sh SH032001 -21.3000 125.800 TD 25 -1 -21.6000 125.800 20 30 990 80 4 5 -21.3000 125.800 TC 25 3 91
2000333S11140 2001 109 SI WA SAM 2000-12-10 21:00:00 NR -21.5465 125.861 main 0 0 ______P_______ SH032001 TD -1 -21.5465 125.861 20 30 991 80 TC 2 90
2000333S11140 2001 109 SI WA SAM 2000-12-11 00:00:00 NR -21.5000 126.000 30 992 bom main 0 0 ______O_______ -1 -21.5000 126.000 20 30 992 80 4 5 5 80
2000333S11140 2001 109 SI WA SAM 2000-12-11 03:00:00 NR -21.4575 126.382 main 0 0 ______P_______ -1 -21.4575 126.382 20 30 994 80 8 83
2000333S11140 2001 109 SI WA SAM 2000-12-11 06:00:00 NR -21.4000 126.900 30 996 bom main 0 0 ______O_______ -1 -21.4000 126.900 20 30 996 80 4 5 10 84
2000333S11140 2001 109 SI WA SAM 2000-12-11 09:00:00 NR -21.3453 127.480 main 0 0 ______P_______ -1 -21.3453 127.480 20 30 995 80 10 79
2000333S11140 2001 109 SI WA SAM 2000-12-11 12:00:00 NR -21.2000 128.000 30 995 bom main 0 0 ______O_______ -1 -21.2000 128.000 20 30 995 80 4 5 9 58
2000333S11140 2001 109 SI WA SAM 2000-12-11 15:00:00 NR -20.8722 128.295 main 0 0 ______P_______ -1 -20.8722 128.295 20 30 994 80 8 34
2000333S11140 2001 109 SI WA SAM 2000-12-11 18:00:00 NR -20.5000 128.500 30 994 bom main 0 0 ______O_______ -1 -20.5000 128.500 20 30 994 80 4 5 8 32
2000333S11140 2001 109 SI WA SAM 2000-12-11 21:00:00 NR -20.1900 128.750 main 0 0 ______P_______ -1 -20.1900 128.750 20 30 993 80 7 43
2000333S11140 2001 109 SI WA SAM 2000-12-12 00:00:00 NR -20.0000 129.000 30 992 bom main 0 0 ______O_______ -1 -20.0000 129.000 20 30 992 80 4 5 5 66
2000333S11140 2001 109 SI WA SAM 2000-12-12 03:00:00 NR -19.9825 129.250 main 0 0 ______P_______ -1 -19.9825 129.250 20 30 991 80 5 102
2000333S11140 2001 109 SI WA SAM 2000-12-12 06:00:00 NR -20.1000 129.500 30 990 bom main 0 0 ______O_______ -1 -20.1000 129.500 20 30 990 80 4 5 5 127
2000333S11140 2001 109 SI WA SAM 2000-12-12 09:00:00 NR -20.3073 129.712 main 0 0 ______P_______ -1 -20.3073 129.712 20 30 988 80 6 131
2000333S11140 2001 109 SI WA SAM 2000-12-12 12:00:00 NR -20.5000 130.000 30 987 bom main 0 0 ______O_______ -1 -20.5000 130.000 20 30 987 80 4 5 7 108
2000333S11140 2001 109 SI WA SAM 2000-12-12 15:00:00 NR -20.5301 130.463 main 0 0 ______P_______ -1 -20.5301 130.463 20 30 988 80 9 90
2000333S11140 2001 109 SI WA SAM 2000-12-12 18:00:00 NR -20.5000 131.000 30 989 bom main 0 0 ______O_______ -1 -20.5000 131.000 20 30 989 80 4 5 10 88
2000333S11140 2001 109 SI WA SAM 2000-12-12 21:00:00 NR -20.4999 131.500 main 0 0 ______P_______ -1 -20.4999 131.500 20 30 989 80 9 90
2000333S11140 2001 109 SI WA SAM 2000-12-13 00:00:00 NR -20.5000 132.000 30 990 bom main 0 0 ______O_______ -1 -20.5000 132.000 20 30 990 80 4 5 9 90
2000333S11140 2001 109 SI WA SAM 2000-12-13 03:00:00 NR -20.4999 132.500 main 0 0 ______P_______ -1 -20.4999 132.500 20 30 991 80 9 90
2000333S11140 2001 109 SI WA SAM 2000-12-13 06:00:00 NR -20.5000 133.000 30 992 bom main 0 0 ______O_______ -1 -20.5000 133.000 20 30 992 80 4 5 10 90
2000333S11140 2001 109 SI WA SAM 2000-12-13 09:00:00 NR -20.5000 133.515 main 0 0 ______P_______ -1 -20.5000 133.515 20 30 993 80 9 90
2000333S11140 2001 109 SI WA SAM 2000-12-13 12:00:00 NR -20.5000 134.000 30 994 bom main 0 0 ______O_______ -1 -20.5000 134.000 20 30 994 80 4 5 9 90
2000333S11140 2001 109 SI WA SAM 2000-12-13 15:00:00 NR -20.4998 134.423 main 0 0 ______P_______ -1 -20.4998 134.423 20 30 995 80 7 90
2000333S11140 2001 109 SI WA SAM 2000-12-13 18:00:00 NR -20.5000 134.800 30 996 bom main 0 0 ______O_______ -1 -20.5000 134.800 20 30 996 80 4 5 7 90
2000333S11140 2001 109 SP EA SAM 2000-12-13 21:00:00 NR -20.5002 135.155 main 0 0 ______P_______ -1 -20.5002 135.155 20 30 997 80 7 90
2000333S11140 2001 109 SP EA SAM 2000-12-14 00:00:00 NR -20.5000 135.500 30 998 bom main 0 ______O_______ -1 -20.5000 135.500 20 30 998 80 4 5 6 90

デジタル台風データ・検索

IBTrACS Databaseについて

本データベースは、米国NOAAが公開する1842年以降の世界の熱帯低気圧のベストトラックデータアーカイブInternational Best Track Archive for Climate Stewardship (IBTrACS)を、ウェブで閲覧しやすい形式に変換したものです。

最終更新日:2021-10-27